sensor_id;sensor_type;location;lat;lon;timestamp;pressure;altitude;pressure_sealevel;temperature;humidity
18678;BME280;9469;51.114;13.914;2022-07-11T00:02:48;99191.25;;;15.84;89.10
18678;BME280;9469;51.114;13.914;2022-07-11T00:07:56;99190.34;;;15.80;89.16
18678;BME280;9469;51.114;13.914;2022-07-11T00:13:03;99186.72;;;15.76;89.45
18678;BME280;9469;51.114;13.914;2022-07-11T00:18:08;99194.78;;;15.76;88.89
18678;BME280;9469;51.114;13.914;2022-07-11T00:23:16;99193.06;;;15.71;89.81
18678;BME280;9469;51.114;13.914;2022-07-11T00:28:21;99186.06;;;15.79;89.51
18678;BME280;9469;51.114;13.914;2022-07-11T00:33:27;99170.41;;;15.52;91.17
18678;BME280;9469;51.114;13.914;2022-07-11T00:38:37;99169.31;;;15.36;92.39
18678;BME280;9469;51.114;13.914;2022-07-11T00:43:51;99180.25;;;15.14;94.49
18678;BME280;9469;51.114;13.914;2022-07-11T00:48:59;99192.06;;;15.13;95.31
18678;BME280;9469;51.114;13.914;2022-07-11T00:54:07;99178.84;;;15.07;96.16
18678;BME280;9469;51.114;13.914;2022-07-11T00:59:14;99175.34;;;15.16;96.05
18678;BME280;9469;51.114;13.914;2022-07-11T01:04:22;99177.41;;;15.10;95.93
18678;BME280;9469;51.114;13.914;2022-07-11T01:09:30;99173.47;;;15.07;97.02
18678;BME280;9469;51.114;13.914;2022-07-11T01:14:35;99178.66;;;15.04;97.51
18678;BME280;9469;51.114;13.914;2022-07-11T01:19:40;99177.28;;;14.89;98.28
18678;BME280;9469;51.114;13.914;2022-07-11T01:24:47;99176.50;;;14.80;98.00
18678;BME280;9469;51.114;13.914;2022-07-11T01:29:52;99178.84;;;14.82;98.71
18678;BME280;9469;51.114;13.914;2022-07-11T01:34:57;99176.66;;;14.84;98.77
18678;BME280;9469;51.114;13.914;2022-07-11T01:40:06;99183.75;;;14.63;98.99
18678;BME280;9469;51.114;13.914;2022-07-11T01:45:12;99183.91;;;14.49;99.52
18678;BME280;9469;51.114;13.914;2022-07-11T01:50:17;99184.69;;;14.58;99.54
18678;BME280;9469;51.114;13.914;2022-07-11T01:55:25;99191.47;;;14.64;98.29
18678;BME280;9469;51.114;13.914;2022-07-11T02:00:30;99191.31;;;14.61;99.43
18678;BME280;9469;51.114;13.914;2022-07-11T02:05:35;99178.38;;;14.54;100.00
18678;BME280;9469;51.114;13.914;2022-07-11T02:10:45;99181.69;;;14.51;100.00
18678;BME280;9469;51.114;13.914;2022-07-11T02:15:50;99175.22;;;14.44;100.00
18678;BME280;9469;51.114;13.914;2022-07-11T02:20:55;99172.81;;;14.25;100.00
18678;BME280;9469;51.114;13.914;2022-07-11T02:26:03;99167.66;;;14.37;100.00
18678;BME280;9469;51.114;13.914;2022-07-11T02:31:08;99180.81;;;14.25;100.00
18678;BME280;9469;51.114;13.914;2022-07-11T02:36:14;99170.13;;;14.16;100.00
18678;BME280;9469;51.114;13.914;2022-07-11T02:41:21;99182.09;;;14.27;100.00
18678;BME280;9469;51.114;13.914;2022-07-11T02:46:27;99185.28;;;14.29;100.00
18678;BME280;9469;51.114;13.914;2022-07-11T02:51:32;99192.94;;;14.14;100.00
18678;BME280;9469;51.114;13.914;2022-07-11T02:56:41;99193.59;;;14.28;100.00
18678;BME280;9469;51.114;13.914;2022-07-11T03:01:46;99195.78;;;14.26;100.00
18678;BME280;9469;51.114;13.914;2022-07-11T03:06:51;99196.72;;;14.13;100.00
18678;BME280;9469;51.114;13.914;2022-07-11T03:12:04;99198.28;;;14.14;100.00
18678;BME280;9469;51.114;13.914;2022-07-11T03:17:10;99201.84;;;14.40;100.00
18678;BME280;9469;51.114;13.914;2022-07-11T03:22:15;99208.50;;;14.12;100.00
18678;BME280;9469;51.114;13.914;2022-07-11T03:27:26;99214.97;;;14.11;100.00
18678;BME280;9469;51.114;13.914;2022-07-11T03:32:31;99211.06;;;14.25;100.00
18678;BME280;9469;51.114;13.914;2022-07-11T03:37:38;99202.94;;;14.39;99.84
18678;BME280;9469;51.114;13.914;2022-07-11T03:42:46;99205.59;;;14.30;100.00
18678;BME280;9469;51.114;13.914;2022-07-11T03:47:51;99212.69;;;14.35;99.21
18678;BME280;9469;51.114;13.914;2022-07-11T03:52:56;99209.72;;;14.62;97.84
18678;BME280;9469;51.114;13.914;2022-07-11T03:58:06;99211.91;;;14.34;98.30
18678;BME280;9469;51.114;13.914;2022-07-11T04:03:11;99217.00;;;14.14;98.77
18678;BME280;9469;51.114;13.914;2022-07-11T04:08:16;99215.41;;;14.04;99.26
18678;BME280;9469;51.114;13.914;2022-07-11T04:13:25;99226.00;;;14.18;98.16
18678;BME280;9469;51.114;13.914;2022-07-11T04:18:30;99229.56;;;14.44;97.35
18678;BME280;9469;51.114;13.914;2022-07-11T04:23:38;99226.16;;;14.21;97.64
18678;BME280;9469;51.114;13.914;2022-07-11T04:28:46;99236.00;;;14.43;96.14
18678;BME280;9469;51.114;13.914;2022-07-11T04:33:51;99233.25;;;14.26;97.31
18678;BME280;9469;51.114;13.914;2022-07-11T04:38:57;99236.41;;;14.28;96.17
18678;BME280;9469;51.114;13.914;2022-07-11T04:44:05;99236.84;;;14.69;95.96
18678;BME280;9469;51.114;13.914;2022-07-11T04:49:10;99235.28;;;14.85;93.70
18678;BME280;9469;51.114;13.914;2022-07-11T04:54:15;99234.63;;;15.05;94.61
18678;BME280;9469;51.114;13.914;2022-07-11T04:59:23;99232.72;;;14.97;94.10
18678;BME280;9469;51.114;13.914;2022-07-11T05:04:28;99241.53;;;15.58;90.78
18678;BME280;9469;51.114;13.914;2022-07-11T05:09:35;99247.91;;;15.83;89.70
18678;BME280;9469;51.114;13.914;2022-07-11T05:14:43;99245.09;;;16.17;87.84
18678;BME280;9469;51.114;13.914;2022-07-11T05:19:51;99251.22;;;17.17;84.23
18678;BME280;9469;51.114;13.914;2022-07-11T05:25:01;99245.97;;;17.98;81.23
18678;BME280;9469;51.114;13.914;2022-07-11T05:30:10;99255.47;;;17.71;81.17
18678;BME280;9469;51.114;13.914;2022-07-11T05:35:18;99258.09;;;17.27;83.54
18678;BME280;9469;51.114;13.914;2022-07-11T05:40:24;99263.13;;;18.30;79.43
18678;BME280;9469;51.114;13.914;2022-07-11T05:45:39;99264.50;;;18.72;76.74
18678;BME280;9469;51.114;13.914;2022-07-11T05:50:47;99263.69;;;18.84;76.25
18678;BME280;9469;51.114;13.914;2022-07-11T05:55:52;99264.09;;;19.38;76.81
18678;BME280;9469;51.114;13.914;2022-07-11T06:01:05;99260.56;;;18.21;78.81
18678;BME280;9469;51.114;13.914;2022-07-11T06:06:11;99265.59;;;19.51;73.95
18678;BME280;9469;51.114;13.914;2022-07-11T06:11:19;99276.41;;;18.59;74.55
18678;BME280;9469;51.114;13.914;2022-07-11T06:16:29;99268.59;;;19.92;72.02
18678;BME280;9469;51.114;13.914;2022-07-11T06:21:35;99271.66;;;22.06;65.36
18678;BME280;9469;51.114;13.914;2022-07-11T06:26:41;99260.41;;;24.23;60.76
18678;BME280;9469;51.114;13.914;2022-07-11T06:31:51;99264.38;;;21.69;64.31
18678;BME280;9469;51.114;13.914;2022-07-11T06:36:58;99258.31;;;23.32;60.61
18678;BME280;9469;51.114;13.914;2022-07-11T06:42:07;99274.56;;;22.43;61.46
18678;BME280;9469;51.114;13.914;2022-07-11T06:47:16;99280.09;;;19.74;70.05
18678;BME280;9469;51.114;13.914;2022-07-11T06:52:24;99282.06;;;22.04;63.47
18678;BME280;9469;51.114;13.914;2022-07-11T06:57:38;99287.22;;;19.66;68.93
18678;BME280;9469;51.114;13.914;2022-07-11T07:03:19;99278.72;;;20.11;68.08
18678;BME280;9469;51.114;13.914;2022-07-11T07:08:26;99284.81;;;20.55;68.05
18678;BME280;9469;51.114;13.914;2022-07-11T07:13:33;99289.06;;;19.78;73.14
18678;BME280;9469;51.114;13.914;2022-07-11T07:18:41;99297.53;;;20.08;71.14
18678;BME280;9469;51.114;13.914;2022-07-11T07:23:50;99305.50;;;17.84;76.08
18678;BME280;9469;51.114;13.914;2022-07-11T07:28:56;99304.56;;;19.25;71.92
18678;BME280;9469;51.114;13.914;2022-07-11T07:34:03;99303.41;;;18.02;75.63
18678;BME280;9469;51.114;13.914;2022-07-11T07:39:10;99299.13;;;20.24;67.96
18678;BME280;9469;51.114;13.914;2022-07-11T07:44:17;99306.25;;;18.66;70.78
18678;BME280;9469;51.114;13.914;2022-07-11T07:49:28;99299.22;;;19.53;69.37
18678;BME280;9469;51.114;13.914;2022-07-11T07:54:33;99292.97;;;20.74;64.23
18678;BME280;9469;51.114;13.914;2022-07-11T07:59:38;99298.91;;;19.43;69.44
18678;BME280;9469;51.114;13.914;2022-07-11T08:04:46;99306.59;;;18.52;72.32
18678;BME280;9469;51.114;13.914;2022-07-11T08:09:55;99296.69;;;19.20;70.43
18678;BME280;9469;51.114;13.914;2022-07-11T08:15:02;99313.53;;;19.02;71.70
18678;BME280;9469;51.114;13.914;2022-07-11T08:20:12;99313.31;;;18.83;71.14
18678;BME280;9469;51.114;13.914;2022-07-11T08:25:19;99303.63;;;18.94;70.08
18678;BME280;9469;51.114;13.914;2022-07-11T08:30:26;99296.88;;;20.42;63.80
18678;BME280;9469;51.114;13.914;2022-07-11T08:48:05;99301.34;;;19.75;67.63
18678;BME280;9469;51.114;13.914;2022-07-11T08:53:38;99292.84;;;20.04;68.26
18678;BME280;9469;51.114;13.914;2022-07-11T08:59:30;99294.47;;;19.78;64.23
18678;BME280;9469;51.114;13.914;2022-07-11T09:05:15;99293.00;;;19.80;64.18
18678;BME280;9469;51.114;13.914;2022-07-11T09:10:21;99294.94;;;20.58;64.49
18678;BME280;9469;51.114;13.914;2022-07-11T09:15:37;99285.69;;;20.59;64.99
18678;BME280;9469;51.114;13.914;2022-07-11T09:20:56;99270.13;;;21.25;61.30
18678;BME280;9469;51.114;13.914;2022-07-11T09:26:21;99291.75;;;20.71;62.33
18678;BME280;9469;51.114;13.914;2022-07-11T09:31:27;99283.59;;;21.22;60.28
18678;BME280;9469;51.114;13.914;2022-07-11T09:36:50;99273.28;;;20.73;61.47
18678;BME280;9469;51.114;13.914;2022-07-11T09:42:15;99279.97;;;20.80;63.46
18678;BME280;9469;51.114;13.914;2022-07-11T09:47:20;99263.28;;;21.12;61.92
18678;BME280;9469;51.114;13.914;2022-07-11T09:52:29;99282.81;;;20.21;62.57
18678;BME280;9469;51.114;13.914;2022-07-11T09:57:39;99259.94;;;21.57;60.32
18678;BME280;9469;51.114;13.914;2022-07-11T10:02:58;99278.22;;;20.37;61.59
18678;BME280;9469;51.114;13.914;2022-07-11T10:08:46;99272.47;;;21.27;60.10
18678;BME280;9469;51.114;13.914;2022-07-11T10:14:06;99256.75;;;21.32;60.41
18678;BME280;9469;51.114;13.914;2022-07-11T10:19:39;99256.81;;;20.63;60.38
18678;BME280;9469;51.114;13.914;2022-07-11T10:55:03;99258.16;;;22.10;57.27
18678;BME280;9469;51.114;13.914;2022-07-11T11:00:31;99259.44;;;21.74;56.50
18678;BME280;9469;51.114;13.914;2022-07-11T11:05:46;99254.78;;;22.65;55.80
18678;BME280;9469;51.114;13.914;2022-07-11T11:17:34;99243.47;;;22.37;54.21
18678;BME280;9469;51.114;13.914;2022-07-11T11:23:08;99244.16;;;22.31;54.58
18678;BME280;9469;51.114;13.914;2022-07-11T11:29:11;99245.72;;;22.84;54.21
18678;BME280;9469;51.114;13.914;2022-07-11T11:34:54;99243.88;;;23.25;53.43
18678;BME280;9469;51.114;13.914;2022-07-11T11:40:10;99242.75;;;22.96;51.98
18678;BME280;9469;51.114;13.914;2022-07-11T11:45:29;99243.53;;;22.93;52.11
18678;BME280;9469;51.114;13.914;2022-07-11T11:50:59;99239.53;;;22.31;54.97
18678;BME280;9469;51.114;13.914;2022-07-11T11:56:48;99255.47;;;22.89;53.84
18678;BME280;9469;51.114;13.914;2022-07-11T12:02:22;99223.13;;;23.39;51.74
18678;BME280;9469;51.114;13.914;2022-07-11T12:07:31;99238.47;;;23.62;52.21
18678;BME280;9469;51.114;13.914;2022-07-11T12:12:43;99236.59;;;23.32;51.45
18678;BME280;9469;51.114;13.914;2022-07-11T12:18:12;99230.13;;;23.40;52.11
18678;BME280;9469;51.114;13.914;2022-07-11T12:23:51;99236.59;;;22.69;51.93
18678;BME280;9469;51.114;13.914;2022-07-11T12:29:10;99214.66;;;23.85;52.29
18678;BME280;9469;51.114;13.914;2022-07-11T12:34:23;99230.97;;;23.48;51.33
18678;BME280;9469;51.114;13.914;2022-07-11T12:39:45;99220.53;;;24.41;49.83
18678;BME280;9469;51.114;13.914;2022-07-11T12:45:04;99227.19;;;24.51;50.48
18678;BME280;9469;51.114;13.914;2022-07-11T12:50:24;99204.44;;;23.75;51.58
18678;BME280;9469;51.114;13.914;2022-07-11T13:01:15;99213.84;;;22.77;51.29
18678;BME280;9469;51.114;13.914;2022-07-11T13:06:46;99210.06;;;22.56;50.17
18678;BME280;9469;51.114;13.914;2022-07-11T13:12:15;99210.75;;;23.09;50.70
18678;BME280;9469;51.114;13.914;2022-07-11T13:17:54;99215.72;;;23.03;51.42
18678;BME280;9469;51.114;13.914;2022-07-11T13:23:02;99207.63;;;23.40;51.84
18678;BME280;9469;51.114;13.914;2022-07-11T13:28:19;99204.31;;;23.57;49.49
18678;BME280;9469;51.114;13.914;2022-07-11T13:33:26;99205.41;;;23.52;49.33
18678;BME280;9469;51.114;13.914;2022-07-11T13:38:33;99199.31;;;23.63;49.87
18678;BME280;9469;51.114;13.914;2022-07-11T13:43:42;99212.41;;;24.45;49.83
18678;BME280;9469;51.114;13.914;2022-07-11T13:48:48;99199.25;;;23.56;49.66
18678;BME280;9469;51.114;13.914;2022-07-11T13:54:04;99198.09;;;23.20;49.67
18678;BME280;9469;51.114;13.914;2022-07-11T13:59:47;99207.88;;;22.39;50.45
18678;BME280;9469;51.114;13.914;2022-07-11T14:05:28;99207.84;;;23.24;50.09
18678;BME280;9469;51.114;13.914;2022-07-11T14:10:53;99204.53;;;23.41;49.51
18678;BME280;9469;51.114;13.914;2022-07-11T14:16:09;99210.00;;;23.12;49.82
18678;BME280;9469;51.114;13.914;2022-07-11T14:21:31;99211.72;;;23.60;49.67
18678;BME280;9469;51.114;13.914;2022-07-11T14:26:40;99196.88;;;23.50;49.68
18678;BME280;9469;51.114;13.914;2022-07-11T14:32:24;99188.94;;;23.75;50.48
18678;BME280;9469;51.114;13.914;2022-07-11T14:37:35;99210.28;;;23.73;50.27
18678;BME280;9469;51.114;13.914;2022-07-11T14:42:45;99212.91;;;23.63;50.20
18678;BME280;9469;51.114;13.914;2022-07-11T14:48:20;99205.88;;;23.62;50.24
18678;BME280;9469;51.114;13.914;2022-07-11T14:53:37;99198.09;;;23.57;49.46
18678;BME280;9469;51.114;13.914;2022-07-11T14:59:17;99191.09;;;23.99;49.75
18678;BME280;9469;51.114;13.914;2022-07-11T15:05:10;99198.69;;;23.80;49.43
18678;BME280;9469;51.114;13.914;2022-07-11T15:10:31;99200.31;;;23.47;49.53
18678;BME280;9469;51.114;13.914;2022-07-11T15:15:57;99188.94;;;23.72;48.99
18678;BME280;9469;51.114;13.914;2022-07-11T15:21:09;99194.69;;;23.63;49.25
18678;BME280;9469;51.114;13.914;2022-07-11T15:26:30;99192.13;;;23.07;49.88
18678;BME280;9469;51.114;13.914;2022-07-11T15:31:53;99187.69;;;23.66;49.68
18678;BME280;9469;51.114;13.914;2022-07-11T15:37:07;99194.78;;;23.37;49.60
18678;BME280;9469;51.114;13.914;2022-07-11T15:42:23;99190.81;;;22.94;50.71
18678;BME280;9469;51.114;13.914;2022-07-11T15:47:32;99188.00;;;22.87;50.83
18678;BME280;9469;51.114;13.914;2022-07-11T15:58:47;99180.84;;;23.82;48.52
18678;BME280;9469;51.114;13.914;2022-07-11T16:03:59;99190.78;;;23.64;49.23
18678;BME280;9469;51.114;13.914;2022-07-11T16:09:07;99195.88;;;23.69;48.96
18678;BME280;9469;51.114;13.914;2022-07-11T16:14:38;99196.38;;;23.82;49.76
18678;BME280;9469;51.114;13.914;2022-07-11T16:20:05;99202.84;;;23.67;48.39
18678;BME280;9469;51.114;13.914;2022-07-11T16:25:14;99196.50;;;23.15;49.77
18678;BME280;9469;51.114;13.914;2022-07-11T16:36:31;99208.66;;;23.32;49.35
18678;BME280;9469;51.114;13.914;2022-07-11T16:42:05;99202.69;;;23.16;50.14
18678;BME280;9469;51.114;13.914;2022-07-11T16:47:24;99200.88;;;23.64;48.40
18678;BME280;9469;51.114;13.914;2022-07-11T16:52:58;99196.22;;;23.27;50.08
18678;BME280;9469;51.114;13.914;2022-07-11T16:58:09;99201.00;;;23.37;49.59
18678;BME280;9469;51.114;13.914;2022-07-11T17:03:27;99203.34;;;23.39;49.46
18678;BME280;9469;51.114;13.914;2022-07-11T17:08:52;99200.78;;;22.87;50.16
18678;BME280;9469;51.114;13.914;2022-07-11T17:14:12;99201.50;;;23.13;50.23
18678;BME280;9469;51.114;13.914;2022-07-11T17:19:23;99204.66;;;22.86;49.51
18678;BME280;9469;51.114;13.914;2022-07-11T17:24:53;99199.44;;;22.70;50.90
18678;BME280;9469;51.114;13.914;2022-07-11T17:29:59;99212.69;;;23.08;49.63
18678;BME280;9469;51.114;13.914;2022-07-11T17:35:09;99207.00;;;22.87;50.33
18678;BME280;9469;51.114;13.914;2022-07-11T17:40:49;99204.84;;;23.00;49.59
18678;BME280;9469;51.114;13.914;2022-07-11T17:46:05;99204.94;;;23.10;49.63
18678;BME280;9469;51.114;13.914;2022-07-11T17:51:14;99203.69;;;23.01;50.43
18678;BME280;9469;51.114;13.914;2022-07-11T17:56:56;99216.81;;;22.95;50.66
18678;BME280;9469;51.114;13.914;2022-07-11T18:02:14;99214.13;;;22.69;50.66
18678;BME280;9469;51.114;13.914;2022-07-11T18:07:25;99205.47;;;22.60;50.88
18678;BME280;9469;51.114;13.914;2022-07-11T18:13:12;99211.81;;;22.71;51.19
18678;BME280;9469;51.114;13.914;2022-07-11T18:18:30;99205.31;;;22.23;51.71
18678;BME280;9469;51.114;13.914;2022-07-11T18:23:55;99205.28;;;22.20;51.56
18678;BME280;9469;51.114;13.914;2022-07-11T18:29:45;99200.94;;;21.89;51.66
18678;BME280;9469;51.114;13.914;2022-07-11T18:35:25;99216.69;;;21.83;51.57
